Swift Ace — C6XB8 — position and weather

sailwx.info

Track history (hours):
 
Tides and Currents Weather Stations Pressure Air Temp Water Temp Dewpoint Dewpoint Depression Visibility Wind Speed Wind Dir Waves Ship Positions

Swift Ace

Last reported at 2014-Oct-24 06:33 UTC. Time now 2014-Oct-24 07:09 UTC.
Position N 33°37' W 118°22'.

Length 200 m; draft 8.5 m.

Type: Cargo ship. MMSI: 311004900.

Date/timePositionNaut miles runAvg speedWind from/ knotsBaromVisibWave heightAir tempDewpointWater temp
2014-Oct-24 06:33N 33°37' W 118°22'1010.1
2014-Oct-24 05:33N 33°42' W 118°33'1010.2
2014-Oct-24 04:33N 33°47' W 118°43'1010.1
2014-Oct-24 03:33N 33°52' W 118°54'10 9.9
2014-Oct-24 02:33N 33°57' W 119°04'1010.0
2014-Oct-24 01:33N 34°02' W 119°15'10 9.9
2014-Oct-24 00:33N 34°05' W 119°26'1010.2
2014-Oct-23 23:33N 34°07' W 119°38'1010.2
2014-Oct-23 22:33N 34°10' W 119°50'10 9.9
2014-Oct-23 21:33N 34°13' W 120°01'1010.0
2014-Oct-23 20:33N 34°16' W 120°13'1010.1
2014-Oct-23 19:34N 34°18' W 120°25'1010.0
2014-Oct-23 18:31N 34°21' W 120°37'1010.6
2014-Oct-23 17:33N 34°24' W 120°49'1312.0
2014-Oct-23 16:26N 34°28' W 121°04'1011.3
2014-Oct-23 15:33N 34°35' W 121°14'1412.8
2014-Oct-23 14:26N 34°46' W 121°23'1112.5
2014-Oct-23 13:33N 34°55' W 121°31'1212.3
2014-Oct-23 12:33N 35°06' W 121°39'1312.7
2014-Oct-23 11:33N 35°16' W 121°48'1312.5
2014-Oct-23 10:33N 35°27' W 121°57'1212.3
2014-Oct-23 09:33N 35°37' W 122°05'1212.4
2014-Oct-23 08:33N 35°47' W 122°14'1212.3
2014-Oct-23 07:33N 35°56' W 122°23'1212.3
2014-Oct-23 06:33N 36°06' W 122°33'5 4.6
2014-Oct-23 05:33N 36°10' W 122°36'1 1.5
2014-Oct-23 04:33N 36°09' W 122°38'2 1.5
2014-Oct-23 03:33N 36°08' W 122°40'2 1.7
2014-Oct-23 02:33N 36°08' W 122°42'1 1.2
2014-Oct-23 01:33N 36°09' W 122°42'1110.8
2014-Oct-23 00:33N 36°19' W 122°36'2 1.6
2014-Oct-22 23:34N 36°20' W 122°36'2 1.7
2014-Oct-22 22:33N 36°20' W 122°38'2 1.8
2014-Oct-22 21:33N 36°20' W 122°40'2 1.7
2014-Oct-22 20:33N 36°20' W 122°42'6 5.5
2014-Oct-22 19:33N 36°25' W 122°46'1212.3
2014-Oct-22 18:33N 36°35' W 122°55'1212.3
2014-Oct-22 17:33N 36°45' W 123°03'1312.7
2014-Oct-22 16:33N 36°56' W 123°12'1615.8
2014-Oct-22 15:33N 37°09' W 123°23'1515.0
2014-Oct-22 14:34N 37°21' W 123°33'1414.0
2014-Oct-22 13:33N 37°33' W 123°43'1414.1
2014-Oct-22 12:33N 37°45' W 123°54'1413.8
2014-Oct-22 11:33N 37°57' W 124°02'1414.0
2014-Oct-22 10:33N 38°10' W 124°06'1413.7
2014-Oct-22 09:32N 38°24' W 124°10'1313.5
2014-Oct-22 08:33N 38°37' W 124°13'56115.1
2014-Oct-20 19:29N 47°56' W 125°18'1717.4
2014-Oct-20 18:31N 48°12' W 125°13'1717.3
2014-Oct-20 17:33N 48°28' W 125°04'1514.9
2014-Oct-20 16:34N 48°31' W 124°42'1717.5
2014-Oct-20 15:34N 48°24' W 124°18'1919.3
2014-Oct-20 14:33N 48°17' W 123°51'1818.0
2014-Oct-20 13:34N 48°12' W 123°25'1212.0
2014-Oct-20 12:33N 48°13' W 123°07'1918.7
2014-Oct-20 11:33N 48°07' W 122°40'1919.0
2014-Oct-20 10:33N 47°50' W 122°27'1919.4
2014-Oct-20 09:34N 47°31' W 122°25'1413.7
2014-Oct-20 08:34N 47°17' W 122°26'3 0.9
2014-Oct-20 05:21N 47°16' W 122°23'0 0.0
2014-Oct-20 04:33N 47°16' W 122°23'0 0.0
2014-Oct-20 03:09N 47°16' W 122°23'0 0.0
2014-Oct-20 02:21N 47°16' W 122°23'0 0.0
2014-Oct-20 01:28N 47°16' W 122°23'2 2.1
2014-Oct-20 00:34N 47°17' W 122°25'1 0.6
2014-Oct-19 23:25N 47°17' W 122°25'0 0.0
2014-Oct-19 22:31N 47°17' W 122°25'0 0.0
2014-Oct-19 21:31N 47°17' W 122°25'0 0.0
2014-Oct-19 20:28N 47°17' W 122°25'0 0.0
2014-Oct-19 19:31N 47°17' W 122°25'0 0.0
2014-Oct-19 18:25N 47°17' W 122°26'0 0.0
2014-Oct-19 17:31N 47°17' W 122°25'0 0.0
2014-Oct-19 16:16N 47°17' W 122°25'0 0.1
2014-Oct-19 15:28N 47°17' W 122°26'0 0.0
2014-Oct-19 14:31N 47°17' W 122°26'0 0.0
2014-Oct-19 13:31N 47°17' W 122°26'0 0.0
2014-Oct-19 12:28N 47°17' W 122°26'0 0.0
2014-Oct-19 11:28N 47°17' W 122°26'0 0.0
2014-Oct-19 10:28N 47°17' W 122°25'0 0.0
2014-Oct-19 09:31N 47°17' W 122°26'6 5.9
2014-Oct-19 08:33N 47°23' W 122°22'1918.7
2014-Oct-19 07:33N 47°41' W 122°28'1817.6
2014-Oct-19 06:34N 47°58' W 122°35'1817.9
2014-Oct-19 05:33N 48°11' W 122°53'1817.8
2014-Oct-19 04:33N 48°11' W 123°19'9 8.8
2014-Oct-19 03:33N 48°18' W 123°28'1212.4
2014-Oct-19 02:33N 48°24' W 123°13'1918.7
2014-Oct-19 01:33N 48°43' W 123°13'1312.8
2014-Oct-19 00:33N 48°56' W 123°11'1211.6
2014-Oct-18 23:33N 49°07' W 123°17'1010.1
2014-Oct-18 22:33N 49°09' W 123°02'5 4.7
2014-Oct-18 21:33N 49°11' W 122°55'0 0.0
2014-Oct-18 20:33N 49°11' W 122°55'0 0.0
2014-Oct-18 19:33N 49°11' W 122°55'0 0.0
2014-Oct-18 18:33N 49°11' W 122°55'0 0.0
2014-Oct-18 17:33N 49°11' W 122°55'0 0.0
2014-Oct-18 16:33N 49°11' W 122°55'0 0.0
2014-Oct-18 15:33N 49°11' W 122°55'0 0.0
2014-Oct-18 14:33N 49°11' W 122°55'0 0.0
2014-Oct-18 13:33N 49°11' W 122°55'0 0.1
2014-Oct-18 12:33N 49°11' W 122°55'7 7.4
2014-Oct-18 11:33N 49°07' W 123°05'10 9.9
2014-Oct-18 10:33N 49°06' W 123°20'1212.4
2014-Oct-18 09:33N 48°56' W 123°08'1312.9
2014-Oct-18 08:33N 48°43' W 123°10'1615.9
2014-Oct-18 07:33N 48°27' W 123°10'1312.7
2014-Oct-18 06:33N 48°19' W 123°24'10 9.8
2014-Oct-18 05:33N 48°13' W 123°36'1110.6
2014-Oct-18 04:33N 48°13' W 123°52'1111.5
2014-Oct-18 03:33N 48°17' W 124°08'1211.6
2014-Oct-18 02:33N 48°22' W 124°24'1211.9
2014-Oct-18 01:33N 48°27' W 124°40'1312.5
2014-Oct-18 00:33N 48°29' W 124°59'1313.3
2014-Oct-17 23:33N 48°28' W 125°19'1414.2
2014-Oct-17 22:33N 48°29' W 125°40'1514.8
2014-Oct-17 21:33N 48°29' W 126°03'1615.5
2014-Oct-17 20:33N 48°29' W 126°26'  
Track history (hours):
 
Tides and Currents Weather Stations Pressure Air Temp Water Temp Dewpoint Dewpoint Depression Visibility Wind Speed Wind Dir Waves Ship Positions

Swift Ace

Last reported at 2014-Oct-24 06:33 UTC. Time now 2014-Oct-24 07:09 UTC.
Position N 33°37' W 118°22'.

Length 200 m; draft 8.5 m.

Type: Cargo ship. MMSI: 311004900.

Date/timePositionNaut miles runAvg speedWind from/ knotsBaromVisibWave heightAir tempDewpointWater temp
2014-Oct-24 06:33N 33°37' W 118°22'1010.1
2014-Oct-24 05:33N 33°42' W 118°33'1010.2
2014-Oct-24 04:33N 33°47' W 118°43'1010.1
2014-Oct-24 03:33N 33°52' W 118°54'10 9.9
2014-Oct-24 02:33N 33°57' W 119°04'1010.0
2014-Oct-24 01:33N 34°02' W 119°15'10 9.9
2014-Oct-24 00:33N 34°05' W 119°26'1010.2
2014-Oct-23 23:33N 34°07' W 119°38'1010.2
2014-Oct-23 22:33N 34°10' W 119°50'10 9.9
2014-Oct-23 21:33N 34°13' W 120°01'1010.0
2014-Oct-23 20:33N 34°16' W 120°13'1010.1
2014-Oct-23 19:34N 34°18' W 120°25'1010.0
2014-Oct-23 18:31N 34°21' W 120°37'1010.6
2014-Oct-23 17:33N 34°24' W 120°49'1312.0
2014-Oct-23 16:26N 34°28' W 121°04'1011.3
2014-Oct-23 15:33N 34°35' W 121°14'1412.8
2014-Oct-23 14:26N 34°46' W 121°23'1112.5
2014-Oct-23 13:33N 34°55' W 121°31'1212.3
2014-Oct-23 12:33N 35°06' W 121°39'1312.7
2014-Oct-23 11:33N 35°16' W 121°48'1312.5
2014-Oct-23 10:33N 35°27' W 121°57'1212.3
2014-Oct-23 09:33N 35°37' W 122°05'1212.4
2014-Oct-23 08:33N 35°47' W 122°14'1212.3
2014-Oct-23 07:33N 35°56' W 122°23'1212.3
2014-Oct-23 06:33N 36°06' W 122°33'5 4.6
2014-Oct-23 05:33N 36°10' W 122°36'1 1.5
2014-Oct-23 04:33N 36°09' W 122°38'2 1.5
2014-Oct-23 03:33N 36°08' W 122°40'2 1.7
2014-Oct-23 02:33N 36°08' W 122°42'1 1.2
2014-Oct-23 01:33N 36°09' W 122°42'1110.8
2014-Oct-23 00:33N 36°19' W 122°36'2 1.6
2014-Oct-22 23:34N 36°20' W 122°36'2 1.7
2014-Oct-22 22:33N 36°20' W 122°38'2 1.8
2014-Oct-22 21:33N 36°20' W 122°40'2 1.7
2014-Oct-22 20:33N 36°20' W 122°42'6 5.5
2014-Oct-22 19:33N 36°25' W 122°46'1212.3
2014-Oct-22 18:33N 36°35' W 122°55'1212.3
2014-Oct-22 17:33N 36°45' W 123°03'1312.7
2014-Oct-22 16:33N 36°56' W 123°12'1615.8
2014-Oct-22 15:33N 37°09' W 123°23'1515.0
2014-Oct-22 14:34N 37°21' W 123°33'1414.0
2014-Oct-22 13:33N 37°33' W 123°43'1414.1
2014-Oct-22 12:33N 37°45' W 123°54'1413.8
2014-Oct-22 11:33N 37°57' W 124°02'1414.0
2014-Oct-22 10:33N 38°10' W 124°06'1413.7
2014-Oct-22 09:32N 38°24' W 124°10'1313.5
2014-Oct-22 08:33N 38°37' W 124°13'56115.1
2014-Oct-20 19:29N 47°56' W 125°18'1717.4
2014-Oct-20 18:31N 48°12' W 125°13'1717.3
2014-Oct-20 17:33N 48°28' W 125°04'1514.9
2014-Oct-20 16:34N 48°31' W 124°42'1717.5
2014-Oct-20 15:34N 48°24' W 124°18'1919.3
2014-Oct-20 14:33N 48°17' W 123°51'1818.0
2014-Oct-20 13:34N 48°12' W 123°25'1212.0
2014-Oct-20 12:33N 48°13' W 123°07'1918.7
2014-Oct-20 11:33N 48°07' W 122°40'1919.0
2014-Oct-20 10:33N 47°50' W 122°27'1919.4
2014-Oct-20 09:34N 47°31' W 122°25'1413.7
2014-Oct-20 08:34N 47°17' W 122°26'3 0.9
2014-Oct-20 05:21N 47°16' W 122°23'0 0.0
2014-Oct-20 04:33N 47°16' W 122°23'0 0.0
2014-Oct-20 03:09N 47°16' W 122°23'0 0.0
2014-Oct-20 02:21N 47°16' W 122°23'0 0.0
2014-Oct-20 01:28N 47°16' W 122°23'2 2.1
2014-Oct-20 00:34N 47°17' W 122°25'1 0.6
2014-Oct-19 23:25N 47°17' W 122°25'0 0.0
2014-Oct-19 22:31N 47°17' W 122°25'0 0.0
2014-Oct-19 21:31N 47°17' W 122°25'0 0.0
2014-Oct-19 20:28N 47°17' W 122°25'0 0.0
2014-Oct-19 19:31N 47°17' W 122°25'0 0.0
2014-Oct-19 18:25N 47°17' W 122°26'0 0.0
2014-Oct-19 17:31N 47°17' W 122°25'0 0.0
2014-Oct-19 16:16N 47°17' W 122°25'0 0.1
2014-Oct-19 15:28N 47°17' W 122°26'0 0.0
2014-Oct-19 14:31N 47°17' W 122°26'0 0.0
2014-Oct-19 13:31N 47°17' W 122°26'0 0.0
2014-Oct-19 12:28N 47°17' W 122°26'0 0.0
2014-Oct-19 11:28N 47°17' W 122°26'0 0.0
2014-Oct-19 10:28N 47°17' W 122°25'0 0.0
2014-Oct-19 09:31N 47°17' W 122°26'6 5.9
2014-Oct-19 08:33N 47°23' W 122°22'1918.7
2014-Oct-19 07:33N 47°41' W 122°28'1817.6
2014-Oct-19 06:34N 47°58' W 122°35'1817.9
2014-Oct-19 05:33N 48°11' W 122°53'1817.8
2014-Oct-19 04:33N 48°11' W 123°19'9 8.8
2014-Oct-19 03:33N 48°18' W 123°28'1212.4
2014-Oct-19 02:33N 48°24' W 123°13'1918.7
2014-Oct-19 01:33N 48°43' W 123°13'1312.8
2014-Oct-19 00:33N 48°56' W 123°11'1211.6
2014-Oct-18 23:33N 49°07' W 123°17'1010.1
2014-Oct-18 22:33N 49°09' W 123°02'5 4.7
2014-Oct-18 21:33N 49°11' W 122°55'0 0.0
2014-Oct-18 20:33N 49°11' W 122°55'0 0.0
2014-Oct-18 19:33N 49°11' W 122°55'0 0.0
2014-Oct-18 18:33N 49°11' W 122°55'0 0.0
2014-Oct-18 17:33N 49°11' W 122°55'0 0.0
2014-Oct-18 16:33N 49°11' W 122°55'0 0.0
2014-Oct-18 15:33N 49°11' W 122°55'0 0.0
2014-Oct-18 14:33N 49°11' W 122°55'0 0.0
2014-Oct-18 13:33N 49°11' W 122°55'0 0.1
2014-Oct-18 12:33N 49°11' W 122°55'7 7.4
2014-Oct-18 11:33N 49°07' W 123°05'10 9.9
2014-Oct-18 10:33N 49°06' W 123°20'1212.4
2014-Oct-18 09:33N 48°56' W 123°08'1312.9
2014-Oct-18 08:33N 48°43' W 123°10'1615.9
2014-Oct-18 07:33N 48°27' W 123°10'1312.7
2014-Oct-18 06:33N 48°19' W 123°24'10 9.8
2014-Oct-18 05:33N 48°13' W 123°36'1110.6
2014-Oct-18 04:33N 48°13' W 123°52'1111.5
2014-Oct-18 03:33N 48°17' W 124°08'1211.6
2014-Oct-18 02:33N 48°22' W 124°24'1211.9
2014-Oct-18 01:33N 48°27' W 124°40'1312.5
2014-Oct-18 00:33N 48°29' W 124°59'1313.3
2014-Oct-17 23:33N 48°28' W 125°19'1414.2
2014-Oct-17 22:33N 48°29' W 125°40'1514.8
2014-Oct-17 21:33N 48°29' W 126°03'1615.5
2014-Oct-17 20:33N 48°29' W 126°26'  

Dump ship's entire track history